No particular awareness of the weather is required.    There are no Weather-warnings


Meteo18 Weather Cam more information Meteo18 Weather Cam


Thunder radar more information blitzortung!


Rain radar more information rain snow radar


Visit our other weather sites:

Template documentation
and downloads

And another site



Weather Underground History page Text

Daily Summary for August 2, 2017 Units:  English    Metric   Both
« Previous Day
Next Day »
Daily Weekly Monthly Yearly Custom
  High: Low: Average:
Temperature: TemperatureC °F 15.5 °F 22.3 °F
Dew Point: DewpointC °F 14.8 °F 17.4 °F
Humidity: Humidity % 51 % 76 %
Wind Speed: WindSpeedKMH mph 0.0 mph 3.3 mph
Wind Gust: WindSpeedGustKMH mph - -
Wind:- - SW
Pressure: PressurehPa in 1015.8 in -
Precipitation: 0.3 in    
Historical Graphs
 
 
Tabular Data for August 2, 2017
Time Temperature Dew Point Pressure Wind Wind Speed Wind Gust Humidity Rainfall Rate (Hourly)
TemperatureC °F DewpointC °F PressurehPa in Calm     Humidity % HourlyPrecipMM in
00:02 17.7 °F 16.2 °F 1019.5 in Calm   3.2 mph 91 % 0.0 in
00:07 17.6 °F 16.3 °F 1019.5 in Calm   3.2 mph 92 % 0.0 in
00:12 17.6 °F 16.3 °F 1019.5 in Calm   3.2 mph 92 % 0.0 in
00:17 17.6 °F 16.3 °F 1019.5 in Calm     92 % 0.0 in
00:22 17.5 °F 16.2 °F 1019.5 in Calm     92 % 0.0 in
00:27 17.4 °F 16.1 °F 1019.5 in Calm     92 % 0.0 in
00:32 17.3 °F 16.0 °F 1019.5 in Calm     92 % 0.0 in
00:37 17.3 °F 16.0 °F 1019.5 in Calm     92 % 0.0 in
00:42 17.2 °F 16.1 °F 1019.5 in Calm     93 % 0.0 in
00:52 17.2 °F 16.1 °F 1019.5 in Calm   1.6 mph 93 % 0.0 in
00:57 17.1 °F 16.0 °F 1019.5 in Calm   1.6 mph 93 % 0.0 in
01:02 16.9 °F 15.8 °F 1019.5 in Calm   1.6 mph 93 % 0.0 in
01:07 16.8 °F 15.7 °F 1019.5 in Calm   1.6 mph 93 % 0.0 in
01:12 16.7 °F 15.7 °F 1019.5 in Calm   1.6 mph 94 % 0.0 in
01:22 16.7 °F 15.7 °F 1019.5 in Calm     94 % 0.0 in
01:32 16.8 °F 15.8 °F 1019.5 in Calm     94 % 0.0 in
01:37 16.8 °F 15.8 °F 1019.5 in Calm     94 % 0.0 in
01:42 16.8 °F 15.8 °F 1019.5 in Calm     94 % 0.0 in
01:47 16.6 °F 15.6 °F 1019.5 in Calm     94 % 0.0 in
01:52 16.7 °F 15.9 °F 1019.5 in Calm     95 % 0.0 in
02:02 16.7 °F 15.7 °F 1019.5 in Calm     94 % 0.0 in
02:07 16.7 °F 15.7 °F 1019.5 in Calm     94 % 0.0 in
02:12 16.7 °F 15.7 °F 1019.5 in Calm     94 % 0.0 in
02:17 16.6 °F 15.6 °F 1019.5 in Calm     94 % 0.0 in
02:22 16.4 °F 15.4 °F 1019.5 in Calm     94 % 0.0 in
02:27 16.4 °F 15.4 °F 1019.5 in Calm     94 % 0.0 in
02:32 16.4 °F 15.4 °F 1019.5 in Calm     94 % 0.0 in
02:37 16.4 °F 15.4 °F 1019.5 in Calm     94 % 0.0 in
02:42 16.3 °F 15.3 °F 1019.5 in Calm     94 % 0.0 in
02:47 16.3 °F 15.3 °F 1019.2 in Calm     94 % 0.0 in
02:52 16.2 °F 15.2 °F 1019.5 in Calm     94 % 0.0 in
02:57 16.2 °F 15.4 °F 1019.5 in Calm     95 % 0.0 in
03:02 16.2 °F 15.4 °F 1019.5 in Calm     95 % 0.0 in
03:07 16.2 °F 15.4 °F 1019.2 in Calm     95 % 0.0 in
03:12 16.2 °F 15.4 °F 1019.2 in Calm     95 % 0.0 in
03:17 16.2 °F 15.4 °F 1019.2 in Calm     95 % 0.0 in
03:22 16.1 °F 15.3 °F 1019.2 in Calm     95 % 0.0 in
03:27 16.1 °F 15.3 °F 1019.2 in Calm     95 % 0.0 in
03:32 16.1 °F 15.3 °F 1019.5 in Calm     95 % 0.0 in
03:37 16.2 °F 15.4 °F 1019.5 in Calm     95 % 0.0 in
03:42 16.2 °F 15.4 °F 1019.5 in Calm     95 % 0.0 in
03:47 16.1 °F 15.3 °F 1019.5 in Calm     95 % 0.0 in
03:52 16.0 °F 15.2 °F 1019.5 in Calm     95 % 0.0 in
03:57 15.9 °F 15.1 °F 1019.5 in Calm     95 % 0.0 in
04:02 15.9 °F 15.1 °F 1019.5 in Calm     95 % 0.0 in
04:07 15.9 °F 15.1 °F 1019.5 in Calm     95 % 0.0 in
04:12 15.9 °F 15.1 °F 1019.5 in Calm     95 % 0.0 in
04:17 15.9 °F 15.1 °F 1019.5 in Calm     95 % 0.0 in
04:22 15.9 °F 15.1 °F 1019.5 in Calm     95 % 0.0 in
04:27 15.8 °F 15.0 °F 1019.5 in Calm     95 % 0.0 in
04:32 15.8 °F 15.0 °F 1019.5 in Calm     95 % 0.0 in
04:37 15.8 °F 15.0 °F 1019.5 in Calm     95 % 0.0 in
04:42 15.7 °F 14.9 °F 1019.5 in Calm     95 % 0.0 in
04:47 15.6 °F 15.0 °F 1019.5 in Calm     96 % 0.0 in
04:52 15.8 °F 15.2 °F 1019.5 in Calm     96 % 0.0 in
04:57 15.8 °F 15.2 °F 1019.9 in NNE 1.6 mph   96 % 0.0 in
05:02 15.9 °F 15.3 °F 1019.5 in North 3.2 mph 3.2 mph 96 % 0.0 in
05:12 16.2 °F 15.6 °F 1019.5 in Calm   3.2 mph 96 % 0.0 in
05:17 16.2 °F 15.6 °F 1019.5 in Calm   3.2 mph 96 % 0.0 in
05:22 16.0 °F 15.2 °F 1019.5 in NE 1.6 mph 1.6 mph 95 % 0.0 in
05:32 15.9 °F 15.1 °F 1019.5 in Calm   1.6 mph 95 % 0.0 in
05:37 15.9 °F 15.1 °F 1019.5 in Calm   1.6 mph 95 % 0.0 in
05:42 15.7 °F 14.9 °F 1019.5 in Calm   1.6 mph 95 % 0.0 in
05:47 15.6 °F 14.8 °F 1019.5 in NNE 1.6 mph 1.6 mph 95 % 0.0 in
05:52 15.6 °F 14.8 °F 1019.9 in Calm   1.6 mph 95 % 0.0 in
05:57 15.7 °F 15.1 °F 1019.9 in Calm   1.6 mph 96 % 0.0 in
06:02 15.7 °F 15.1 °F 1019.5 in Calm   1.6 mph 96 % 0.0 in
06:07 15.7 °F 15.1 °F 1019.5 in Calm     96 % 0.0 in
06:12 15.7 °F 15.1 °F 1019.5 in Calm   1.6 mph 96 % 0.0 in
06:17 15.6 °F 15.0 °F 1019.5 in Calm   1.6 mph 96 % 0.0 in
06:22 15.6 °F 15.0 °F 1019.9 in Calm   1.6 mph 96 % 0.0 in
06:27 15.6 °F 15.0 °F 1019.9 in Calm     96 % 0.0 in
06:32 15.6 °F 15.0 °F 1019.9 in Calm     96 % 0.0 in
06:37 15.5 °F 14.9 °F 1019.9 in Calm     96 % 0.0 in
06:42 15.6 °F 15.0 °F 1019.9 in Calm     96 % 0.0 in
06:47 15.6 °F 15.0 °F 1019.9 in Calm     96 % 0.0 in
06:52 15.6 °F 15.0 °F 1019.9 in Calm     96 % 0.0 in
07:02 15.6 °F 15.0 °F 1020.2 in Calm     96 % 0.0 in
07:07 15.6 °F 15.0 °F 1020.2 in Calm     96 % 0.0 in
07:12 15.7 °F 15.1 °F 1020.2 in Calm   1.6 mph 96 % 0.0 in
07:17 15.7 °F 15.1 °F 1019.9 in Calm   1.6 mph 96 % 0.0 in
07:22 15.8 °F 15.2 °F 1019.9 in Calm   3.2 mph 96 % 0.0 in
07:27 15.8 °F 15.2 °F 1019.9 in Calm   3.2 mph 96 % 0.0 in
07:32 15.7 °F 15.1 °F 1019.9 in Calm   3.2 mph 96 % 0.0 in
07:37 15.7 °F 15.1 °F 1019.9 in Calm   1.6 mph 96 % 0.0 in
07:42 15.8 °F 15.2 °F 1020.2 in Calm   1.6 mph 96 % 0.0 in
07:47 15.9 °F 15.4 °F 1020.2 in Calm     97 % 0.0 in
07:52 16.0 °F 15.5 °F 1020.2 in Calm     97 % 0.0 in
07:57 16.2 °F 15.7 °F 1020.2 in Calm     97 % 0.0 in
08:02 16.3 °F 15.8 °F 1020.2 in Calm     97 % 0.0 in
08:07 16.4 °F 15.9 °F 1020.2 in Calm     97 % 0.0 in
08:12 16.5 °F 16.0 °F 1020.2 in South 3.2 mph   97 % 0.0 in
08:17 16.6 °F 16.1 °F 1020.2 in SW 3.2 mph 4.8 mph 97 % 0.0 in
08:22 16.7 °F 16.2 °F 1020.2 in South 1.6 mph 4.8 mph 97 % 0.0 in
08:32 16.8 °F 16.3 °F 1020.2 in Calm   4.8 mph 97 % 0.0 in
08:37 16.9 °F 16.4 °F 1020.2 in Calm   3.2 mph 97 % 0.0 in
08:42 17.1 °F 16.6 °F 1020.5 in SW 1.6 mph 3.2 mph 97 % 0.0 in
08:47 17.2 °F 16.7 °F 1020.5 in Calm   3.2 mph 97 % 0.0 in
08:52 17.4 °F 16.9 °F 1020.5 in SSE 1.6 mph 3.2 mph 97 % 0.0 in
08:57 17.6 °F 17.1 °F 1020.2 in South 1.6 mph 6.4 mph 97 % 0.0 in
09:02 17.6 °F 17.1 °F 1020.2 in SSW 1.6 mph 6.4 mph 97 % 0.0 in
09:07 17.7 °F 17.2 °F 1020.2 in WSW 1.6 mph 6.4 mph 97 % 0.0 in
09:12 17.8 °F 17.3 °F 1020.2 in Calm   4.8 mph 97 % 0.0 in
09:17 17.9 °F 17.4 °F 1020.2 in WSW 1.6 mph 4.8 mph 97 % 0.0 in
09:22 18.1 °F 17.6 °F 1020.2 in SW 3.2 mph 3.2 mph 97 % 0.0 in
09:27 18.1 °F 17.5 °F 1020.2 in SSE 3.2 mph 3.2 mph 96 % 0.0 in
09:32 18.2 °F 17.7 °F 1020.2 in SW 3.2 mph 3.2 mph 97 % 0.0 in
09:37 18.2 °F 17.6 °F 1020.2 in Calm   6.4 mph 96 % 0.0 in
09:42 18.4 °F 17.9 °F 1020.2 in SSW 4.8 mph 6.4 mph 97 % 0.0 in
09:47 18.4 °F 17.8 °F 1020.2 in Calm   6.4 mph 96 % 0.0 in
09:52 18.6 °F 17.9 °F 1020.2 in South 1.6 mph 6.4 mph 96 % 0.0 in
09:57 18.8 °F 18.1 °F 1020.2 in SSE 3.2 mph 6.4 mph 96 % 0.0 in
10:02 18.8 °F 18.0 °F 1020.5 in South 3.2 mph 6.4 mph 95 % 0.3 in
10:12 19.2 °F 18.5 °F 1020.5 in WSW 3.2 mph 9.7 mph 96 % 0.3 in
10:17 19.3 °F 18.6 °F 1020.5 in WSW 3.2 mph 9.7 mph 96 % 0.3 in
10:22 19.7 °F 18.9 °F 1020.2 in SSW 1.6 mph 9.7 mph 95 % 0.3 in
10:27 20.2 °F 19.4 °F 1020.5 in WSW 4.8 mph 8.0 mph 95 % 0.3 in
10:32 20.2 °F 19.0 °F 1020.2 in SSW 1.6 mph 6.4 mph 93 % 0.3 in
10:37 20.6 °F 19.4 °F 1020.2 in SSW 3.2 mph 6.4 mph 93 % 0.3 in
10:42 20.9 °F 19.4 °F 1020.2 in Calm   6.4 mph 91 % 0.3 in
10:47 21.5 °F 19.8 °F 1020.2 in Calm   4.8 mph 90 % 0.3 in
10:52 21.9 °F 19.5 °F 1020.2 in Calm   4.8 mph 86 % 0.3 in
10:57 22.1 °F 19.3 °F 1020.2 in South 1.6 mph 8.0 mph 84 % 0.0 in
11:02 22.4 °F 19.6 °F 1020.2 in Calm   8.0 mph 84 % 0.0 in
11:07 22.8 °F 19.4 °F 1020.2 in West 1.6 mph 8.0 mph 81 % 0.0 in
11:12 23.1 °F 19.3 °F 1020.2 in West 3.2 mph 6.4 mph 79 % 0.0 in
11:17 23.3 °F 19.7 °F 1020.2 in SW 1.6 mph 6.4 mph 80 % 0.0 in
11:22 23.4 °F 19.3 °F 1020.2 in SW 3.2 mph 6.4 mph 78 % 0.0 in
11:27 23.7 °F 19.6 °F 1020.2 in SW 3.2 mph 6.4 mph 78 % 0.0 in
11:32 24.1 °F 19.2 °F 1020.2 in Calm   6.4 mph 74 % 0.0 in
11:37 23.9 °F 19.2 °F 1020.2 in Calm   8.0 mph 75 % 0.0 in
11:42 24.4 °F 19.2 °F 1020.2 in SW 4.8 mph 8.0 mph 73 % 0.0 in
11:47 24.6 °F 18.5 °F 1020.2 in SW 1.6 mph 8.0 mph 69 % 0.0 in
11:52 24.8 °F 18.0 °F 1019.9 in SSW 6.4 mph 8.0 mph 66 % 0.0 in
11:57 24.8 °F 18.3 °F 1020.2 in SSE 3.2 mph 9.7 mph 67 % 0.0 in
12:02 24.9 °F 17.4 °F 1019.9 in WSW 8.0 mph 9.7 mph 63 % 0.0 in
12:07 25.0 °F 18.2 °F 1020.2 in South 4.8 mph 12.9 mph 66 % 0.0 in
12:12 25.2 °F 18.4 °F 1019.9 in Calm   12.9 mph 66 % 0.0 in
12:17 25.3 °F 17.5 °F 1020.2 in West 4.8 mph 12.9 mph 62 % 0.0 in
12:22 25.5 °F 17.4 °F 1020.2 in WSW 4.8 mph 9.7 mph 61 % 0.0 in
12:27 25.7 °F 17.4 °F 1020.2 in South 6.4 mph 9.7 mph 60 % 0.0 in
12:32 25.7 °F 17.4 °F 1020.2 in SSW 11.3 mph 12.9 mph 60 % 0.0 in
12:37 25.6 °F 17.3 °F 1020.2 in WSW 3.2 mph 16.1 mph 60 % 0.0 in
12:42 25.6 °F 17.0 °F 1019.9 in SW 11.3 mph 16.1 mph 59 % 0.0 in
12:47 25.6 °F 17.0 °F 1019.9 in WSW 1.6 mph 16.1 mph 59 % 0.0 in
12:52 25.8 °F 17.4 °F 1019.9 in WSW 8.0 mph 11.3 mph 60 % 0.0 in
12:57 25.9 °F 17.3 °F 1019.9 in WSW 3.2 mph 11.3 mph 59 % 0.0 in
13:02 25.8 °F 16.9 °F 1019.9 in West 6.4 mph 11.3 mph 58 % 0.0 in
13:12 26.1 °F 17.7 °F 1019.9 in SW 11.3 mph 11.3 mph 60 % 0.0 in
13:17 26.2 °F 17.8 °F 1019.9 in SSW 9.7 mph 16.1 mph 60 % 0.0 in
13:22 26.2 °F 17.0 °F 1019.9 in SW 8.0 mph 16.1 mph 57 % 0.0 in
13:27 26.4 °F 17.5 °F 1019.5 in SW 3.2 mph 16.1 mph 58 % 0.0 in
13:32 26.5 °F 17.6 °F 1019.5 in SW 11.3 mph 17.7 mph 58 % 0.0 in
13:37 26.6 °F 17.7 °F 1019.5 in SW 9.7 mph 17.7 mph 58 % 0.0 in
13:42 26.6 °F 17.7 °F 1019.2 in South 3.2 mph 17.7 mph 58 % 0.0 in
13:47 26.9 °F 17.7 °F 1019.2 in South 8.0 mph 17.7 mph 57 % 0.0 in
13:52 27.1 °F 18.1 °F 1019.2 in SW 11.3 mph 17.7 mph 58 % 0.0 in
13:57 27.1 °F 18.4 °F 1019.2 in SSW 6.4 mph 14.5 mph 59 % 0.0 in
14:02 27.0 °F 18.0 °F 1018.8 in SSW 6.4 mph 16.1 mph 58 % 0.0 in
14:12 27.2 °F 17.9 °F 1018.8 in WSW 11.3 mph 16.1 mph 57 % 0.0 in
14:17 27.1 °F 17.8 °F 1018.8 in Calm   14.5 mph 57 % 0.0 in
14:22 27.3 °F 18.0 °F 1018.8 in SW 11.3 mph 14.5 mph 57 % 0.0 in
14:27 27.4 °F 17.6 °F 1018.8 in SSW 3.2 mph 14.5 mph 55 % 0.0 in
14:32 27.4 °F 18.4 °F 1018.8 in SSW 12.9 mph 14.5 mph 58 % 0.0 in
14:37 27.2 °F 17.4 °F 1018.5 in SW 1.6 mph 16.1 mph 55 % 0.0 in
14:42 27.6 °F 17.7 °F 1018.5 in WSW 8.0 mph 16.1 mph 55 % 0.0 in
14:47 27.6 °F 18.3 °F 1018.5 in SW 8.0 mph 16.1 mph 57 % 0.0 in
14:52 27.7 °F 18.1 °F 1018.5 in WSW 8.0 mph 16.1 mph 56 % 0.0 in
14:57 27.8 °F 17.6 °F 1018.5 in SSW 11.3 mph 17.7 mph 54 % 0.0 in
15:02 27.7 °F 18.1 °F 1018.5 in WSW 6.4 mph 19.3 mph 56 % 0.0 in
15:07 27.9 °F 18.0 °F 1018.5 in WSW 11.3 mph 19.3 mph 55 % 0.0 in
15:12 27.9 °F 18.0 °F 1018.5 in SW 6.4 mph 19.3 mph 55 % 0.0 in
15:17 27.9 °F 18.6 °F 1018.2 in South 11.3 mph 16.1 mph 57 % 0.0 in
15:22 27.8 °F 17.9 °F 1018.2 in SW 17.7 mph 17.7 mph 55 % 0.0 in
15:27 27.8 °F 17.9 °F 1018.2 in SW 6.4 mph 24.1 mph 55 % 0.0 in
15:32 27.9 °F 18.0 °F 1018.2 in WSW 1.6 mph 24.1 mph 55 % 0.0 in
15:37 28.1 °F 17.6 °F 1018.2 in WSW 9.7 mph 24.1 mph 53 % 0.0 in
15:47 27.9 °F 17.4 °F 1018.2 in WSW 3.2 mph 19.3 mph 53 % 0.0 in
15:52 28.1 °F 17.9 °F 1017.8 in SW 8.0 mph 19.3 mph 54 % 0.0 in
15:57 28.3 °F 18.4 °F 1017.8 in SSE 9.7 mph 17.7 mph 55 % 0.0 in
16:02 28.4 °F 17.9 °F 1017.8 in SW 8.0 mph 17.7 mph 53 % 0.0 in
16:07 28.4 °F 17.6 °F 1017.8 in SW 8.0 mph 17.7 mph 52 % 0.0 in
16:12 28.4 °F 18.2 °F 1017.8 in West 11.3 mph 17.7 mph 54 % 0.0 in
16:17 28.6 °F 18.4 °F 1017.8 in WSW 20.9 mph 20.9 mph 54 % 0.0 in
16:22 28.4 °F 17.3 °F 1017.5 in WSW 3.2 mph 20.9 mph 51 % 0.0 in
16:27 28.7 °F 18.5 °F 1017.5 in WSW 12.9 mph 20.9 mph 54 % 0.0 in
16:32 28.7 °F 18.8 °F 1017.5 in WSW 3.2 mph 20.9 mph 55 % 0.0 in
16:37 28.8 °F 18.3 °F 1017.5 in SW 1.6 mph 17.7 mph 53 % 0.0 in
16:42 28.8 °F 18.3 °F 1017.8 in WSW 6.4 mph 17.7 mph 53 % 0.0 in
16:47 28.7 °F 17.9 °F 1017.8 in WSW 11.3 mph 20.9 mph 52 % 0.0 in
16:52 28.7 °F 19.1 °F 1017.5 in WSW 9.7 mph 20.9 mph 56 % 0.0 in
16:57 28.7 °F 17.9 °F 1017.5 in SW 3.2 mph 20.9 mph 52 % 0.0 in
17:02 28.7 °F 18.5 °F 1017.5 in West 8.0 mph 11.3 mph 54 % 0.0 in
17:07 28.7 °F 18.2 °F 1017.5 in West 9.7 mph 17.7 mph 53 % 0.0 in
17:12 28.7 °F 18.2 °F 1017.5 in West 3.2 mph 17.7 mph 53 % 0.0 in
17:17 28.7 °F 18.5 °F 1017.5 in West 11.3 mph 17.7 mph 54 % 0.0 in
17:22 28.6 °F 18.4 °F 1017.2 in WSW 9.7 mph 16.1 mph 54 % 0.0 in
17:27 28.6 °F 18.4 °F 1017.2 in WSW 4.8 mph 16.1 mph 54 % 0.0 in
17:32 28.7 °F 18.5 °F 1017.2 in SW 9.7 mph 16.1 mph 54 % 0.0 in
17:37 28.8 °F 18.3 °F 1017.2 in SW 3.2 mph 16.1 mph 53 % 0.0 in
17:42 29.0 °F 18.5 °F 1017.2 in West 11.3 mph 16.1 mph 53 % 0.0 in
17:47 29.0 °F 18.7 °F 1017.2 in WSW 9.7 mph 14.5 mph 54 % 0.0 in
17:52 29.1 °F 18.5 °F 1017.2 in West 9.7 mph 16.1 mph 53 % 0.0 in
17:57 29.1 °F 17.9 °F 1017.2 in WSW 8.0 mph 17.7 mph 51 % 0.0 in
18:02 29.1 °F 18.8 °F 1016.8 in SW 12.9 mph 17.7 mph 54 % 0.0 in
18:07 29.1 °F 18.2 °F 1016.8 in SW 6.4 mph 16.1 mph 52 % 0.0 in
18:12 29.2 °F 18.3 °F 1016.8 in SW 8.0 mph 16.1 mph 52 % 0.0 in
18:17 29.2 °F 18.3 °F 1016.8 in South 3.2 mph 16.1 mph 52 % 0.0 in
18:22 29.3 °F 19.9 °F 1016.5 in SW 6.4 mph 16.1 mph 57 % 0.0 in
18:27 29.4 °F 19.7 °F 1016.5 in SW 3.2 mph 12.9 mph 56 % 0.0 in
18:32 29.5 °F 19.2 °F 1016.5 in SSW 6.4 mph 11.3 mph 54 % 0.0 in
18:37 29.4 °F 18.8 °F 1016.1 in SW 6.4 mph 9.7 mph 53 % 0.0 in
18:42 29.3 °F 19.0 °F 1016.1 in SW 4.8 mph 12.9 mph 54 % 0.0 in
18:47 29.3 °F 19.0 °F 1016.1 in WSW 4.8 mph 12.9 mph 54 % 0.0 in
18:52 29.3 °F 19.3 °F 1016.1 in WSW 4.8 mph 12.9 mph 55 % 0.0 in
18:57 29.2 °F 18.9 °F 1016.1 in SW 6.4 mph 12.9 mph 54 % 0.0 in
19:02 29.3 °F 18.7 °F 1016.1 in SW 9.7 mph 16.1 mph 53 % 0.0 in
19:07 29.3 °F 18.7 °F 1016.1 in WSW 6.4 mph 16.1 mph 53 % 0.0 in
19:12 29.4 °F 19.4 °F 1016.1 in SW 6.4 mph 14.5 mph 55 % 0.0 in
19:17 29.4 °F 19.1 °F 1016.1 in SSW 4.8 mph 12.9 mph 54 % 0.0 in
19:22 29.4 °F 19.1 °F 1016.1 in WSW 4.8 mph 12.9 mph 54 % 0.0 in
19:27 29.4 °F 19.4 °F 1016.1 in WSW 6.4 mph 12.9 mph 55 % 0.0 in
19:32 29.4 °F 19.7 °F 1015.8 in SW 9.7 mph 12.9 mph 56 % 0.0 in
19:37 29.3 °F 19.3 °F 1015.8 in West 8.0 mph 14.5 mph 55 % 0.0 in
19:42 29.3 °F 19.3 °F 1016.1 in WSW 6.4 mph 14.5 mph 55 % 0.0 in
19:47 29.3 °F 19.3 °F 1016.1 in SW 4.8 mph 14.5 mph 55 % 0.0 in
19:52 29.3 °F 19.6 °F 1015.8 in SW 6.4 mph 9.7 mph 56 % 0.0 in
19:57 29.3 °F 19.6 °F 1015.8 in SW 1.6 mph 9.7 mph 56 % 0.0 in
20:02 29.2 °F 19.5 °F 1015.8 in SSW 4.8 mph 9.7 mph 56 % 0.0 in
20:07 29.2 °F 19.5 °F 1015.8 in SW 6.4 mph 8.0 mph 56 % 0.0 in
20:12 29.0 °F 19.0 °F 1015.8 in WSW 8.0 mph 11.3 mph 55 % 0.0 in
20:17 28.8 °F 19.1 °F 1015.8 in SW 6.4 mph 12.9 mph 56 % 0.0 in
20:27 28.4 °F 19.1 °F 1015.8 in SW 4.8 mph 12.9 mph 57 % 0.0 in
20:32 28.2 °F 19.4 °F 1015.8 in SW 3.2 mph 9.7 mph 59 % 0.0 in
20:37 27.9 °F 19.7 °F 1015.8 in SW 3.2 mph 9.7 mph 61 % 0.0 in
20:42 27.8 °F 19.6 °F 1015.8 in SSW 3.2 mph 9.7 mph 61 % 0.0 in
20:47 27.6 °F 19.7 °F 1015.8 in SW 4.8 mph 6.4 mph 62 % 0.0 in
20:52 27.4 °F 19.7 °F 1015.8 in SSW 3.2 mph 6.4 mph 63 % 0.0 in
20:57 27.1 °F 20.0 °F 1015.8 in SSW 1.6 mph 6.4 mph 65 % 0.0 in
21:02 26.8 °F 19.7 °F 1015.8 in SSW 1.6 mph 6.4 mph 65 % 0.0 in
21:07 26.6 °F 20.0 °F 1016.1 in SW 3.2 mph 4.8 mph 67 % 0.0 in
21:12 26.4 °F 19.8 °F 1016.1 in SW 3.2 mph 3.2 mph 67 % 0.0 in
21:17 26.5 °F 19.4 °F 1016.1 in SW 4.8 mph 4.8 mph 65 % 0.0 in
21:22 26.6 °F 19.5 °F 1016.1 in SW 4.8 mph 4.8 mph 65 % 0.0 in
21:27 26.6 °F 19.5 °F 1016.1 in SSW 4.8 mph 8.0 mph 65 % 0.0 in
21:32 26.4 °F 19.3 °F 1016.1 in WSW 4.8 mph 8.0 mph 65 % 0.0 in
21:37 26.5 °F 19.4 °F 1016.1 in SW 4.8 mph 8.0 mph 65 % 0.0 in
21:42 26.4 °F 19.5 °F 1016.1 in SW 6.4 mph 8.0 mph 66 % 0.0 in
21:47 26.2 °F 19.3 °F 1016.1 in SW 6.4 mph 8.0 mph 66 % 0.0 in
21:52 26.1 °F 19.5 °F 1016.1 in SW 6.4 mph 8.0 mph 67 % 0.0 in
21:57 25.9 °F 19.5 °F 1016.1 in SW 4.8 mph 8.0 mph 68 % 0.0 in
22:02 25.9 °F 19.3 °F 1016.1 in SW 4.8 mph 8.0 mph 67 % 0.0 in
22:12 26.0 °F 19.4 °F 1016.5 in WSW 3.2 mph 9.7 mph 67 % 0.0 in
22:17 25.5 °F 19.6 °F 1016.5 in WSW 1.6 mph 9.7 mph 70 % 0.0 in
22:22 25.2 °F 19.6 °F 1016.5 in West 1.6 mph 9.7 mph 71 % 0.0 in
22:27 24.9 °F 19.5 °F 1016.5 in WSW 1.6 mph 8.0 mph 72 % 0.0 in
22:32 24.9 °F 19.5 °F 1016.5 in Calm   6.4 mph 72 % 0.0 in
22:37 24.8 °F 19.4 °F 1016.5 in West 3.2 mph 4.8 mph 72 % 0.0 in
22:42 24.9 °F 19.5 °F 1016.5 in WSW 3.2 mph 4.8 mph 72 % 0.0 in
22:47 24.9 °F 19.5 °F 1016.5 in Calm   4.8 mph 72 % 0.0 in
22:52 24.4 °F 19.5 °F 1016.5 in Calm   4.8 mph 74 % 0.0 in
22:57 23.9 °F 19.4 °F 1016.5 in Calm   4.8 mph 76 % 0.0 in
23:02 23.7 °F 19.4 °F 1016.5 in Calm   1.6 mph 77 % 0.0 in
23:07 23.3 °F 19.5 °F 1016.5 in Calm   3.2 mph 79 % 0.0 in
23:12 23.1 °F 19.3 °F 1016.8 in Calm   3.2 mph 79 % 0.0 in
23:17 22.9 °F 19.3 °F 1016.5 in Calm   3.2 mph 80 % 0.0 in
23:27 22.7 °F 19.3 °F 1016.8 in Calm     81 % 0.0 in
23:32 22.4 °F 19.2 °F 1016.8 in Calm     82 % 0.0 in
23:37 22.2 °F 19.0 °F 1016.5 in Calm     82 % 0.0 in
23:42 22.1 °F 19.1 °F 1016.5 in Calm     83 % 0.0 in
23:47 22.1 °F 19.1 °F 1016.8 in Calm     83 % 0.0 in
23:52 22.2 °F 19.2 °F 1016.5 in Calm   1.6 mph 83 % 0.0 in
23:57 22.2 °F 19.0 °F 1016.8 in Calm   1.6 mph 82 % 0.0 in
Meteo18
Compliments of Weather Underground - 4 mb

Script developed by  Jim McMurry - jmcmurry@mwt.net Adapted for the template by  Wim van der Kuil - Leuven-Template.eu

You find our weather info also at:

European Weather Network

Weather Underground

Equipment we use:

Weather-station
Davis Vue

Weather-program
Meteobridge

Weather-server
Raspberry PI 2 B+

Provider
1 and 1

Davis Vue

Meteobridge

Raspberry PI 2 B+

1 and 1